sensor_id;sensor_type;location;lat;lon;timestamp;pressure;altitude;pressure_sealevel;temperature;humidity
7754;BME280;3921;42.266;23.122;2022-11-15T00:01:57;96250.91;;;6.56;67.25
7754;BME280;3921;42.266;23.122;2022-11-15T00:04:39;95894.19;;;4.30;67.45
7754;BME280;3921;42.266;23.122;2022-11-15T00:07:06;96242.59;;;6.55;66.89
7754;BME280;3921;42.266;23.122;2022-11-15T00:09:33;96103.59;;;5.41;66.26
7754;BME280;3921;42.266;23.122;2022-11-15T00:12:01;96242.38;;;6.46;66.85
7754;BME280;3921;42.266;23.122;2022-11-15T00:14:28;96120.88;;;5.70;66.59
7754;BME280;3921;42.266;23.122;2022-11-15T00:16:55;96052.38;;;5.18;66.62
7754;BME280;3921;42.266;23.122;2022-11-15T00:19:22;96232.06;;;6.31;67.18
7754;BME280;3921;42.266;23.122;2022-11-15T00:21:51;96124.75;;;5.57;68.03
7754;BME280;3921;42.266;23.122;2022-11-15T00:24:18;96156.75;;;5.75;68.12
7754;BME280;3921;42.266;23.122;2022-11-15T00:26:45;96200.25;;;5.88;68.91
7754;BME280;3921;42.266;23.122;2022-11-15T00:29:12;96156.53;;;5.67;67.99
7754;BME280;3921;42.266;23.122;2022-11-15T00:31:39;95831.25;;;3.66;67.01
7754;BME280;3921;42.266;23.122;2022-11-15T00:34:05;96226.84;;;6.22;67.47
7754;BME280;3921;42.266;23.122;2022-11-15T00:36:33;96240.91;;;6.18;67.66
7754;BME280;3921;42.266;23.122;2022-11-15T00:39:03;96249.06;;;6.11;67.07
7754;BME280;3921;42.266;23.122;2022-11-15T00:41:30;95922.31;;;3.94;67.10
7754;BME280;3921;42.266;23.122;2022-11-15T00:43:57;96191.84;;;5.49;68.30
7754;BME280;3921;42.266;23.122;2022-11-15T00:46:24;95804.50;;;3.26;67.76
7754;BME280;3921;42.266;23.122;2022-11-15T00:48:55;96239.03;;;6.08;67.38
7754;BME280;3921;42.266;23.122;2022-11-15T00:51:22;95824.09;;;3.45;67.24
7754;BME280;3921;42.266;23.122;2022-11-15T00:53:50;96096.25;;;5.13;67.02
7754;BME280;3921;42.266;23.122;2022-11-15T00:56:20;96178.56;;;5.50;67.34
7754;BME280;3921;42.266;23.122;2022-11-15T00:58:48;95884.00;;;3.56;67.15
7754;BME280;3921;42.266;23.122;2022-11-15T01:01:16;95982.75;;;4.23;67.42
7754;BME280;3921;42.266;23.122;2022-11-15T01:03:46;96228.50;;;5.86;68.13
7754;BME280;3921;42.266;23.122;2022-11-15T01:06:16;96183.59;;;5.52;67.90
7754;BME280;3921;42.266;23.122;2022-11-15T01:08:44;96038.16;;;4.47;67.98
7754;BME280;3921;42.266;23.122;2022-11-15T01:11:11;95792.25;;;3.00;68.04
7754;BME280;3921;42.266;23.122;2022-11-15T01:13:42;95834.31;;;3.26;68.52
7754;BME280;3921;42.266;23.122;2022-11-15T01:16:15;95719.13;;;2.59;68.09
7754;BME280;3921;42.266;23.122;2022-11-15T01:18:46;96235.06;;;5.83;68.55
7754;BME280;3921;42.266;23.122;2022-11-15T01:21:15;96230.97;;;5.85;67.61
7754;BME280;3921;42.266;23.122;2022-11-15T01:23:45;96064.22;;;4.62;67.84
7754;BME280;3921;42.266;23.122;2022-11-15T01:26:22;96069.66;;;4.78;67.02
7754;BME280;3921;42.266;23.122;2022-11-15T01:28:58;96134.03;;;4.98;67.43
7754;BME280;3921;42.266;23.122;2022-11-15T01:31:25;96134.28;;;5.05;67.57
7754;BME280;3921;42.266;23.122;2022-11-15T01:33:57;96128.28;;;4.99;68.37
7754;BME280;3921;42.266;23.122;2022-11-15T01:36:37;96175.59;;;5.30;69.33
7754;BME280;3921;42.266;23.122;2022-11-15T01:39:09;96129.34;;;5.09;69.11
7754;BME280;3921;42.266;23.122;2022-11-15T01:41:48;96233.41;;;5.83;68.58
7754;BME280;3921;42.266;23.122;2022-11-15T01:44:45;96238.31;;;5.80;68.40
7754;BME280;3921;42.266;23.122;2022-11-15T01:47:24;96244.69;;;5.69;69.33
7754;BME280;3921;42.266;23.122;2022-11-15T01:50:00;96134.28;;;5.05;69.94
7754;BME280;3921;42.266;23.122;2022-11-15T01:52:36;96119.72;;;4.89;68.24
7754;BME280;3921;42.266;23.122;2022-11-15T01:55:13;96159.53;;;5.19;67.77
7754;BME280;3921;42.266;23.122;2022-11-15T01:57:47;96241.91;;;5.57;67.38
7754;BME280;3921;42.266;23.122;2022-11-15T02:00:21;96004.28;;;3.91;68.18
7754;BME280;3921;42.266;23.122;2022-11-15T02:02:52;96252.41;;;5.45;67.94
7754;BME280;3921;42.266;23.122;2022-11-15T02:05:21;96264.75;;;5.41;67.91
7754;BME280;3921;42.266;23.122;2022-11-15T02:07:55;96246.91;;;5.27;68.78
7754;BME280;3921;42.266;23.122;2022-11-15T02:10:24;96084.69;;;4.21;68.63
7754;BME280;3921;42.266;23.122;2022-11-15T02:12:52;95654.25;;;1.61;68.48
7754;BME280;3921;42.266;23.122;2022-11-15T02:15:34;95770.84;;;2.47;68.63
7754;BME280;3921;42.266;23.122;2022-11-15T02:18:14;96167.31;;;4.70;68.06
7754;BME280;3921;42.266;23.122;2022-11-15T02:21:12;96138.25;;;4.69;67.46
7754;BME280;3921;42.266;23.122;2022-11-15T02:24:00;96199.88;;;5.06;68.13
7754;BME280;3921;42.266;23.122;2022-11-15T02:29:59;96091.13;;;4.43;67.11
7754;BME280;3921;42.266;23.122;2022-11-15T02:32:35;96250.25;;;5.27;66.93
7754;BME280;3921;42.266;23.122;2022-11-15T02:35:12;96098.63;;;4.45;67.03
7754;BME280;3921;42.266;23.122;2022-11-15T02:37:45;96219.47;;;5.25;66.95
7754;BME280;3921;42.266;23.122;2022-11-15T02:40:33;95955.69;;;3.43;66.88
7754;BME280;3921;42.266;23.122;2022-11-15T02:43:08;96221.50;;;5.09;67.23
7754;BME280;3921;42.266;23.122;2022-11-15T02:46:00;96226.28;;;5.01;67.39
7754;BME280;3921;42.266;23.122;2022-11-15T02:48:31;96231.19;;;4.98;67.15
7754;BME280;3921;42.266;23.122;2022-11-15T02:51:02;95941.31;;;3.05;67.61
7754;BME280;3921;42.266;23.122;2022-11-15T02:53:30;96238.47;;;4.92;67.77
7754;BME280;3921;42.266;23.122;2022-11-15T02:56:09;96125.28;;;4.19;68.20
7754;BME280;3921;42.266;23.122;2022-11-15T02:58:59;95996.28;;;3.44;68.16
7754;BME280;3921;42.266;23.122;2022-11-15T03:01:38;96034.59;;;3.79;68.57
7754;BME280;3921;42.266;23.122;2022-11-15T03:04:21;96225.63;;;5.06;68.32
7754;BME280;3921;42.266;23.122;2022-11-15T03:06:54;96255.50;;;5.06;67.79
7754;BME280;3921;42.266;23.122;2022-11-15T03:09:31;96148.75;;;4.59;68.11
7754;BME280;3921;42.266;23.122;2022-11-15T03:12:08;96149.66;;;4.61;67.98
7754;BME280;3921;42.266;23.122;2022-11-15T03:14:42;95698.47;;;1.77;67.66
7754;BME280;3921;42.266;23.122;2022-11-15T03:17:19;96091.22;;;4.18;68.31
7754;BME280;3921;42.266;23.122;2022-11-15T03:19:53;96188.81;;;4.96;67.20
7754;BME280;3921;42.266;23.122;2022-11-15T03:22:29;96119.13;;;4.36;67.28
7754;BME280;3921;42.266;23.122;2022-11-15T03:24:59;95896.53;;;3.02;67.66
7754;BME280;3921;42.266;23.122;2022-11-15T03:27:34;96144.25;;;4.45;67.83
7754;BME280;3921;42.266;23.122;2022-11-15T03:30:06;96220.78;;;5.11;67.53
7754;BME280;3921;42.266;23.122;2022-11-15T03:32:38;95677.53;;;1.95;67.20
7754;BME280;3921;42.266;23.122;2022-11-15T03:35:15;95930.56;;;3.33;66.68
7754;BME280;3921;42.266;23.122;2022-11-15T03:37:48;95932.19;;;3.32;66.15
7754;BME280;3921;42.266;23.122;2022-11-15T03:40:23;95986.53;;;3.79;65.71
7754;BME280;3921;42.266;23.122;2022-11-15T03:42:59;95929.09;;;3.39;66.42
7754;BME280;3921;42.266;23.122;2022-11-15T03:45:33;96103.44;;;4.39;66.57
7754;BME280;3921;42.266;23.122;2022-11-15T03:48:06;95719.66;;;1.95;66.65
7754;BME280;3921;42.266;23.122;2022-11-15T03:50:52;96194.56;;;4.94;67.09
7754;BME280;3921;42.266;23.122;2022-11-15T03:53:21;95736.22;;;2.23;66.79
7754;BME280;3921;42.266;23.122;2022-11-15T03:55:55;95988.53;;;3.90;67.00
7754;BME280;3921;42.266;23.122;2022-11-15T03:58:25;96128.81;;;4.57;67.94
7754;BME280;3921;42.266;23.122;2022-11-15T04:00:53;95968.09;;;3.72;68.04
7754;BME280;3921;42.266;23.122;2022-11-15T04:03:20;96103.84;;;4.54;68.07
7754;BME280;3921;42.266;23.122;2022-11-15T04:05:48;95762.50;;;2.45;67.95
7754;BME280;3921;42.266;23.122;2022-11-15T04:08:16;96192.69;;;5.17;68.19
7754;BME280;3921;42.266;23.122;2022-11-15T04:10:43;96189.38;;;5.18;67.81
7754;BME280;3921;42.266;23.122;2022-11-15T04:13:10;96141.72;;;4.74;67.79
7754;BME280;3921;42.266;23.122;2022-11-15T04:15:41;96070.56;;;4.50;67.99
7754;BME280;3921;42.266;23.122;2022-11-15T04:18:12;96113.69;;;4.81;67.42
7754;BME280;3921;42.266;23.122;2022-11-15T04:20:41;96073.78;;;4.46;68.19
7754;BME280;3921;42.266;23.122;2022-11-15T04:23:27;96185.78;;;5.08;67.77
7754;BME280;3921;42.266;23.122;2022-11-15T04:26:33;96188.47;;;5.16;67.29
7754;BME280;3921;42.266;23.122;2022-11-15T04:29:00;96095.91;;;4.67;66.97
7754;BME280;3921;42.266;23.122;2022-11-15T04:31:44;96121.94;;;4.78;66.84
7754;BME280;3921;42.266;23.122;2022-11-15T04:34:11;96062.81;;;4.40;66.15
7754;BME280;3921;42.266;23.122;2022-11-15T04:36:38;95938.63;;;3.54;66.52
7754;BME280;3921;42.266;23.122;2022-11-15T04:39:36;96171.38;;;4.96;65.85
7754;BME280;3921;42.266;23.122;2022-11-15T04:42:05;96115.50;;;4.55;65.50
7754;BME280;3921;42.266;23.122;2022-11-15T04:44:34;96046.59;;;4.22;65.12
7754;BME280;3921;42.266;23.122;2022-11-15T04:47:04;96176.06;;;4.86;65.41
7754;BME280;3921;42.266;23.122;2022-11-15T04:49:38;96058.00;;;4.16;65.77
7754;BME280;3921;42.266;23.122;2022-11-15T04:52:08;95883.00;;;2.92;66.36
7754;BME280;3921;42.266;23.122;2022-11-15T04:54:39;96165.97;;;4.81;65.71
7754;BME280;3921;42.266;23.122;2022-11-15T04:57:07;96032.16;;;3.81;65.82
7754;BME280;3921;42.266;23.122;2022-11-15T04:59:36;96168.94;;;4.68;65.51
7754;BME280;3921;42.266;23.122;2022-11-15T05:02:13;96166.91;;;4.55;66.24
7754;BME280;3921;42.266;23.122;2022-11-15T05:04:40;96019.78;;;3.55;66.65
7754;BME280;3921;42.266;23.122;2022-11-15T05:07:06;96002.13;;;3.44;67.01
7754;BME280;3921;42.266;23.122;2022-11-15T05:09:35;96160.63;;;4.37;67.28
7754;BME280;3921;42.266;23.122;2022-11-15T05:12:03;96181.53;;;4.15;68.35
7754;BME280;3921;42.266;23.122;2022-11-15T05:14:34;96048.94;;;3.61;68.68
7754;BME280;3921;42.266;23.122;2022-11-15T05:17:04;96192.06;;;4.35;69.13
7754;BME280;3921;42.266;23.122;2022-11-15T05:19:31;95952.97;;;2.80;67.96
7754;BME280;3921;42.266;23.122;2022-11-15T05:22:10;95598.47;;;0.94;67.82
7754;BME280;3921;42.266;23.122;2022-11-15T05:24:37;96169.75;;;4.38;67.73
7754;BME280;3921;42.266;23.122;2022-11-15T05:27:05;95953.38;;;2.92;67.72
7754;BME280;3921;42.266;23.122;2022-11-15T05:29:32;96048.59;;;3.49;68.23
7754;BME280;3921;42.266;23.122;2022-11-15T05:31:59;96190.47;;;4.37;67.94
7754;BME280;3921;42.266;23.122;2022-11-15T05:34:26;95685.59;;;1.10;67.64
7754;BME280;3921;42.266;23.122;2022-11-15T05:36:53;95690.97;;;0.98;67.91
7754;BME280;3921;42.266;23.122;2022-11-15T05:42:21;96195.09;;;4.53;70.49
7754;BME280;3921;42.266;23.122;2022-11-15T05:50:15;96208.13;;;4.75;67.83
7754;BME280;3921;42.266;23.122;2022-11-15T05:52:44;96075.78;;;3.99;67.94
7754;BME280;3921;42.266;23.122;2022-11-15T05:55:13;96035.66;;;3.59;67.65
7754;BME280;3921;42.266;23.122;2022-11-15T05:57:42;95883.34;;;2.49;67.89
7754;BME280;3921;42.266;23.122;2022-11-15T06:00:10;96096.13;;;3.86;67.38
7754;BME280;3921;42.266;23.122;2022-11-15T06:02:37;95853.66;;;2.52;66.66
7754;BME280;3921;42.266;23.122;2022-11-15T06:05:04;96084.91;;;3.72;67.48
7754;BME280;3921;42.266;23.122;2022-11-15T06:07:31;96201.25;;;4.38;68.55
7754;BME280;3921;42.266;23.122;2022-11-15T06:09:58;95839.69;;;2.28;68.84
7754;BME280;3921;42.266;23.122;2022-11-15T06:12:25;96014.25;;;3.35;68.73
7754;BME280;3921;42.266;23.122;2022-11-15T06:17:29;96192.34;;;4.44;68.95
7754;BME280;3921;42.266;23.122;2022-11-15T06:19:56;95690.34;;;1.29;68.31
7754;BME280;3921;42.266;23.122;2022-11-15T06:22:30;95593.09;;;0.81;67.61
7754;BME280;3921;42.266;23.122;2022-11-15T06:24:57;95988.94;;;3.20;68.29
7754;BME280;3921;42.266;23.122;2022-11-15T06:27:24;95712.34;;;1.45;67.54
7754;BME280;3921;42.266;23.122;2022-11-15T06:29:51;95835.53;;;2.27;66.86
7754;BME280;3921;42.266;23.122;2022-11-15T06:32:18;95736.94;;;1.41;68.96
7754;BME280;3921;42.266;23.122;2022-11-15T06:34:47;96052.56;;;3.43;69.65
7754;BME280;3921;42.266;23.122;2022-11-15T06:39:43;95772.69;;;2.00;70.89
7754;BME280;3921;42.266;23.122;2022-11-15T06:42:10;96131.13;;;4.21;70.35
7754;BME280;3921;42.266;23.122;2022-11-15T06:44:37;96057.84;;;3.53;70.09
7754;BME280;3921;42.266;23.122;2022-11-15T06:47:04;96017.72;;;3.40;70.72
7754;BME280;3921;42.266;23.122;2022-11-15T06:49:31;95658.94;;;1.26;71.06
7754;BME280;3921;42.266;23.122;2022-11-15T06:51:59;95951.50;;;3.14;71.09
7754;BME280;3921;42.266;23.122;2022-11-15T06:54:26;96160.69;;;4.40;71.30
7754;BME280;3921;42.266;23.122;2022-11-15T06:56:53;96206.59;;;4.78;71.36
7754;BME280;3921;42.266;23.122;2022-11-15T06:59:20;96049.91;;;3.93;70.84
7754;BME280;3921;42.266;23.122;2022-11-15T07:01:49;96096.97;;;4.15;71.04
7754;BME280;3921;42.266;23.122;2022-11-15T07:04:16;96013.50;;;3.95;71.02
7754;BME280;3921;42.266;23.122;2022-11-15T07:06:46;96194.78;;;5.03;70.31
7754;BME280;3921;42.266;23.122;2022-11-15T07:09:14;95895.31;;;3.16;70.87
7754;BME280;3921;42.266;23.122;2022-11-15T07:11:41;96094.22;;;4.66;71.06
7754;BME280;3921;42.266;23.122;2022-11-15T07:14:08;95854.63;;;3.12;71.21
7754;BME280;3921;42.266;23.122;2022-11-15T07:16:36;96135.69;;;4.97;71.88
7754;BME280;3921;42.266;23.122;2022-11-15T07:19:03;96181.06;;;5.17;72.02
7754;BME280;3921;42.266;23.122;2022-11-15T07:21:30;95856.97;;;3.36;72.05
7754;BME280;3921;42.266;23.122;2022-11-15T07:23:57;96002.59;;;4.20;72.36
7754;BME280;3921;42.266;23.122;2022-11-15T07:26:27;95856.94;;;3.35;72.18
7754;BME280;3921;42.266;23.122;2022-11-15T07:28:54;95681.66;;;2.21;72.36
7754;BME280;3921;42.266;23.122;2022-11-15T07:31:21;95832.97;;;3.37;72.27
7754;BME280;3921;42.266;23.122;2022-11-15T07:33:49;96098.84;;;5.17;72.54
7754;BME280;3921;42.266;23.122;2022-11-15T07:36:16;96179.91;;;5.71;72.81
7754;BME280;3921;42.266;23.122;2022-11-15T07:38:42;96049.63;;;5.07;73.21
7754;BME280;3921;42.266;23.122;2022-11-15T07:41:09;96166.19;;;5.90;73.78
7754;BME280;3921;42.266;23.122;2022-11-15T07:43:38;96037.47;;;5.21;73.52
7754;BME280;3921;42.266;23.122;2022-11-15T07:46:06;95991.19;;;4.94;73.78
7754;BME280;3921;42.266;23.122;2022-11-15T07:48:34;96055.44;;;5.44;74.01
7754;BME280;3921;42.266;23.122;2022-11-15T07:51:02;95856.69;;;4.20;74.13
7754;BME280;3921;42.266;23.122;2022-11-15T07:53:29;95993.31;;;5.14;74.36
7754;BME280;3921;42.266;23.122;2022-11-15T07:55:55;95920.94;;;4.71;74.58
7754;BME280;3921;42.266;23.122;2022-11-15T07:58:22;96104.69;;;5.90;75.24
7754;BME280;3921;42.266;23.122;2022-11-15T08:00:53;95889.91;;;4.57;75.75
7754;BME280;3921;42.266;23.122;2022-11-15T08:03:20;95888.06;;;4.86;75.66
7754;BME280;3921;42.266;23.122;2022-11-15T08:05:50;95871.06;;;4.68;75.73
7754;BME280;3921;42.266;23.122;2022-11-15T08:08:18;95968.41;;;5.51;76.12
7754;BME280;3921;42.266;23.122;2022-11-15T08:10:45;96081.06;;;6.10;76.53
7754;BME280;3921;42.266;23.122;2022-11-15T08:13:13;96081.56;;;6.35;77.10
7754;BME280;3921;42.266;23.122;2022-11-15T08:15:40;95650.00;;;3.72;77.79
7754;BME280;3921;42.266;23.122;2022-11-15T08:18:11;95685.88;;;4.19;78.45
7754;BME280;3921;42.266;23.122;2022-11-15T08:20:40;96071.31;;;6.65;79.26
7754;BME280;3921;42.266;23.122;2022-11-15T08:23:10;95748.28;;;4.68;80.58
7754;BME280;3921;42.266;23.122;2022-11-15T08:25:37;95667.94;;;4.33;81.39
7754;BME280;3921;42.266;23.122;2022-11-15T08:28:06;95857.09;;;5.52;81.79
7754;BME280;3921;42.266;23.122;2022-11-15T08:30:36;96162.50;;;7.34;82.95
7754;BME280;3921;42.266;23.122;2022-11-15T08:33:04;96006.25;;;6.57;83.18
7754;BME280;3921;42.266;23.122;2022-11-15T08:35:32;96120.72;;;7.27;84.27
7754;BME280;3921;42.266;23.122;2022-11-15T08:37:59;96145.16;;;7.43;85.17
7754;BME280;3921;42.266;23.122;2022-11-15T08:40:26;96061.91;;;6.97;85.25
7754;BME280;3921;42.266;23.122;2022-11-15T08:42:53;95811.28;;;5.47;84.77
7754;BME280;3921;42.266;23.122;2022-11-15T08:45:34;96102.63;;;7.40;85.22
7754;BME280;3921;42.266;23.122;2022-11-15T08:48:02;96106.00;;;7.45;86.00
7754;BME280;3921;42.266;23.122;2022-11-15T08:50:29;96001.56;;;6.76;85.30
7754;BME280;3921;42.266;23.122;2022-11-15T08:53:04;96121.28;;;7.62;85.61
7754;BME280;3921;42.266;23.122;2022-11-15T08:55:31;95769.78;;;5.47;85.64
7754;BME280;3921;42.266;23.122;2022-11-15T08:57:58;95809.25;;;5.71;85.80
7754;BME280;3921;42.266;23.122;2022-11-15T09:00:25;96012.13;;;7.09;86.20
7754;BME280;3921;42.266;23.122;2022-11-15T09:02:52;95938.94;;;6.63;86.17
7754;BME280;3921;42.266;23.122;2022-11-15T09:05:19;95791.28;;;5.89;85.96
7754;BME280;3921;42.266;23.122;2022-11-15T09:07:46;95799.72;;;5.96;85.69
7754;BME280;3921;42.266;23.122;2022-11-15T09:10:15;96107.53;;;7.90;85.68
7754;BME280;3921;42.266;23.122;2022-11-15T09:12:42;95776.22;;;5.83;86.16
7754;BME280;3921;42.266;23.122;2022-11-15T09:15:14;95534.03;;;4.57;85.99
7754;BME280;3921;42.266;23.122;2022-11-15T09:17:42;95766.53;;;6.00;85.75
7754;BME280;3921;42.266;23.122;2022-11-15T09:20:09;95662.59;;;5.47;85.79
7754;BME280;3921;42.266;23.122;2022-11-15T09:22:36;96075.16;;;7.99;86.37
7754;BME280;3921;42.266;23.122;2022-11-15T09:25:05;95934.00;;;7.21;86.35
7754;BME280;3921;42.266;23.122;2022-11-15T09:27:34;95685.41;;;5.69;86.00
7754;BME280;3921;42.266;23.122;2022-11-15T09:30:01;95824.09;;;6.65;86.98
7754;BME280;3921;42.266;23.122;2022-11-15T09:32:28;95667.69;;;5.53;86.13
7754;BME280;3921;42.266;23.122;2022-11-15T09:34:58;95811.75;;;6.73;85.98
7754;BME280;3921;42.266;23.122;2022-11-15T09:37:25;95729.66;;;6.35;86.11
7754;BME280;3921;42.266;23.122;2022-11-15T09:39:52;95885.91;;;7.37;85.88
7754;BME280;3921;42.266;23.122;2022-11-15T09:42:36;96004.31;;;8.06;85.94
7754;BME280;3921;42.266;23.122;2022-11-15T09:45:15;95929.59;;;7.64;86.29
7754;BME280;3921;42.266;23.122;2022-11-15T09:48:13;96015.53;;;8.36;86.15
7754;BME280;3921;42.266;23.122;2022-11-15T09:50:47;95894.53;;;7.59;86.33
7754;BME280;3921;42.266;23.122;2022-11-15T09:53:22;95601.09;;;5.99;86.19
7754;BME280;3921;42.266;23.122;2022-11-15T09:56:02;95680.72;;;6.46;85.91
7754;BME280;3921;42.266;23.122;2022-11-15T09:58:50;95552.47;;;5.71;86.02
7754;BME280;3921;42.266;23.122;2022-11-15T10:01:33;95752.50;;;7.29;85.44
7754;BME280;3921;42.266;23.122;2022-11-15T10:04:03;95857.38;;;7.93;85.69
7754;BME280;3921;42.266;23.122;2022-11-15T10:06:31;95584.31;;;6.54;85.42
7754;BME280;3921;42.266;23.122;2022-11-15T10:09:05;95713.41;;;7.37;85.12
7754;BME280;3921;42.266;23.122;2022-11-15T10:11:35;95722.75;;;7.52;85.23
7754;BME280;3921;42.266;23.122;2022-11-15T10:14:13;95542.78;;;6.61;84.14
7754;BME280;3921;42.266;23.122;2022-11-15T10:17:22;95935.25;;;9.13;83.93
7754;BME280;3921;42.266;23.122;2022-11-15T10:20:02;96014.81;;;9.39;83.10
7754;BME280;3921;42.266;23.122;2022-11-15T10:22:38;95876.50;;;8.76;82.28
7754;BME280;3921;42.266;23.122;2022-11-15T10:25:20;95983.88;;;9.40;82.13
7754;BME280;3921;42.266;23.122;2022-11-15T10:27:54;95515.31;;;6.61;81.10
7754;BME280;3921;42.266;23.122;2022-11-15T10:30:23;95853.97;;;8.77;80.93
7754;BME280;3921;42.266;23.122;2022-11-15T10:32:56;95499.50;;;6.63;80.88
7754;BME280;3921;42.266;23.122;2022-11-15T10:35:24;95635.19;;;7.49;80.51
7754;BME280;3921;42.266;23.122;2022-11-15T10:37:52;95627.69;;;7.48;80.83
7754;BME280;3921;42.266;23.122;2022-11-15T10:40:30;95936.22;;;9.40;80.58
7754;BME280;3921;42.266;23.122;2022-11-15T10:43:05;95905.25;;;9.25;81.08
7754;BME280;3921;42.266;23.122;2022-11-15T10:45:34;95528.91;;;6.89;80.31
7754;BME280;3921;42.266;23.122;2022-11-15T10:48:20;95461.28;;;6.68;80.06
7754;BME280;3921;42.266;23.122;2022-11-15T10:50:50;95844.91;;;8.99;80.21
7754;BME280;3921;42.266;23.122;2022-11-15T10:53:21;95481.31;;;6.72;79.48
7754;BME280;3921;42.266;23.122;2022-11-15T10:55:52;95518.13;;;6.96;79.49
7754;BME280;3921;42.266;23.122;2022-11-15T10:58:22;95448.00;;;6.73;78.88
7754;BME280;3921;42.266;23.122;2022-11-15T11:01:08;95499.81;;;6.99;79.32
7754;BME280;3921;42.266;23.122;2022-11-15T11:03:36;95450.56;;;6.79;79.21
7754;BME280;3921;42.266;23.122;2022-11-15T11:06:06;95834.13;;;9.13;79.79
7754;BME280;3921;42.266;23.122;2022-11-15T11:08:33;95528.44;;;7.39;79.37
7754;BME280;3921;42.266;23.122;2022-11-15T11:11:02;95494.97;;;7.15;79.14
7754;BME280;3921;42.266;23.122;2022-11-15T11:13:31;95649.91;;;8.20;79.82
7754;BME280;3921;42.266;23.122;2022-11-15T11:16:16;95687.69;;;8.59;79.43
7754;BME280;3921;42.266;23.122;2022-11-15T11:18:49;95650.06;;;8.43;79.42
7754;BME280;3921;42.266;23.122;2022-11-15T11:21:22;95794.13;;;9.40;79.09
7754;BME280;3921;42.266;23.122;2022-11-15T11:23:53;95715.41;;;9.00;79.44
7754;BME280;3921;42.266;23.122;2022-11-15T11:26:38;95852.81;;;9.91;79.04
7754;BME280;3921;42.266;23.122;2022-11-15T11:29:21;95745.63;;;9.32;79.54
7754;BME280;3921;42.266;23.122;2022-11-15T11:31:58;95403.44;;;7.33;78.72
7754;BME280;3921;42.266;23.122;2022-11-15T11:34:36;95513.84;;;8.05;78.95
7754;BME280;3921;42.266;23.122;2022-11-15T11:37:12;95659.47;;;9.05;78.91
7754;BME280;3921;42.266;23.122;2022-11-15T11:39:51;95415.19;;;7.48;77.90
7754;BME280;3921;42.266;23.122;2022-11-15T11:42:28;95816.91;;;10.17;78.31
7754;BME280;3921;42.266;23.122;2022-11-15T11:45:05;95577.53;;;8.80;78.19
7754;BME280;3921;42.266;23.122;2022-11-15T11:47:46;95722.28;;;9.65;78.25
7754;BME280;3921;42.266;23.122;2022-11-15T11:50:17;95708.94;;;9.69;78.32
7754;BME280;3921;42.266;23.122;2022-11-15T11:52:57;95539.97;;;8.72;78.72
7754;BME280;3921;42.266;23.122;2022-11-15T11:55:28;95768.38;;;10.21;79.22
7754;BME280;3921;42.266;23.122;2022-11-15T11:58:04;95744.06;;;10.06;78.35
7754;BME280;3921;42.266;23.122;2022-11-15T12:00:33;95416.25;;;8.11;78.09
7754;BME280;3921;42.266;23.122;2022-11-15T12:03:09;95708.94;;;9.98;77.25
7754;BME280;3921;42.266;23.122;2022-11-15T12:05:40;95782.59;;;10.57;78.21
7754;BME280;3921;42.266;23.122;2022-11-15T12:08:25;95697.19;;;10.14;77.56
7754;BME280;3921;42.266;23.122;2022-11-15T12:11:01;95674.59;;;10.03;77.82
7754;BME280;3921;42.266;23.122;2022-11-15T12:13:30;95645.34;;;9.85;77.70
7754;BME280;3921;42.266;23.122;2022-11-15T12:16:05;95445.59;;;8.62;77.45
7754;BME280;3921;42.266;23.122;2022-11-15T12:18:34;95679.66;;;10.28;77.80
7754;BME280;3921;42.266;23.122;2022-11-15T12:21:04;95236.88;;;7.55;77.27
7754;BME280;3921;42.266;23.122;2022-11-15T12:23:39;95387.97;;;8.45;77.45
7754;BME280;3921;42.266;23.122;2022-11-15T12:26:10;95700.47;;;10.65;77.21
7754;BME280;3921;42.266;23.122;2022-11-15T12:28:43;95220.25;;;7.75;77.02
7754;BME280;3921;42.266;23.122;2022-11-15T12:31:16;95375.47;;;8.70;77.26
7754;BME280;3921;42.266;23.122;2022-11-15T12:33:47;95736.44;;;10.87;77.54
7754;BME280;3921;42.266;23.122;2022-11-15T12:36:34;95511.53;;;9.62;77.32
7754;BME280;3921;42.266;23.122;2022-11-15T12:39:03;95665.31;;;10.60;77.37
7754;BME280;3921;42.266;23.122;2022-11-15T12:41:32;95483.13;;;9.57;77.46
7754;BME280;3921;42.266;23.122;2022-11-15T12:44:00;95269.44;;;8.08;77.24
7754;BME280;3921;42.266;23.122;2022-11-15T12:49:45;95705.41;;;11.02;77.12
7754;BME280;3921;42.266;23.122;2022-11-15T12:52:13;95328.72;;;8.61;76.50
7754;BME280;3921;42.266;23.122;2022-11-15T12:55:00;95659.38;;;10.90;76.18
7754;BME280;3921;42.266;23.122;2022-11-15T12:57:41;95650.13;;;10.93;76.45
7754;BME280;3921;42.266;23.122;2022-11-15T13:00:37;95691.06;;;11.19;76.61
7754;BME280;3921;42.266;23.122;2022-11-15T13:03:22;95579.97;;;10.47;77.06
7754;BME280;3921;42.266;23.122;2022-11-15T13:06:10;95482.22;;;9.93;76.98
7754;BME280;3921;42.266;23.122;2022-11-15T13:08:57;95506.47;;;9.94;76.71
7754;BME280;3921;42.266;23.122;2022-11-15T13:11:51;95691.00;;;11.33;76.90
7754;BME280;3921;42.266;23.122;2022-11-15T13:14:51;95685.94;;;11.37;76.75
7754;BME280;3921;42.266;23.122;2022-11-15T13:17:44;95210.22;;;8.50;77.04
7754;BME280;3921;42.266;23.122;2022-11-15T13:20:22;95481.28;;;10.08;77.24
7754;BME280;3921;42.266;23.122;2022-11-15T13:22:58;95487.94;;;10.29;77.14
7754;BME280;3921;42.266;23.122;2022-11-15T13:28:42;95559.81;;;10.57;77.29
7754;BME280;3921;42.266;23.122;2022-11-15T13:31:30;95250.19;;;8.85;76.97
7754;BME280;3921;42.266;23.122;2022-11-15T13:34:02;95169.34;;;8.39;77.00
7754;BME280;3921;42.266;23.122;2022-11-15T13:36:32;95626.47;;;11.27;77.44
7754;BME280;3921;42.266;23.122;2022-11-15T13:39:04;95549.63;;;10.83;76.82
7754;BME280;3921;42.266;23.122;2022-11-15T13:41:49;95241.81;;;8.88;76.81
7754;BME280;3921;42.266;23.122;2022-11-15T13:44:19;95433.63;;;10.05;77.13
7754;BME280;3921;42.266;23.122;2022-11-15T13:46:47;95385.19;;;9.92;76.63
7754;BME280;3921;42.266;23.122;2022-11-15T13:49:14;95558.00;;;10.85;76.57
7754;BME280;3921;42.266;23.122;2022-11-15T13:51:47;95397.78;;;9.81;76.53
7754;BME280;3921;42.266;23.122;2022-11-15T13:54:20;95663.94;;;11.65;76.41
7754;BME280;3921;42.266;23.122;2022-11-15T13:56:55;95563.72;;;11.06;76.31
7754;BME280;3921;42.266;23.122;2022-11-15T13:59:25;95652.19;;;11.66;75.95
7754;BME280;3921;42.266;23.122;2022-11-15T14:01:53;95671.47;;;11.68;76.93
7754;BME280;3921;42.266;23.122;2022-11-15T14:04:22;95560.38;;;11.08;76.01
7754;BME280;3921;42.266;23.122;2022-11-15T14:06:52;95234.22;;;9.12;76.21
7754;BME280;3921;42.266;23.122;2022-11-15T14:09:39;95642.19;;;11.60;76.14
7754;BME280;3921;42.266;23.122;2022-11-15T14:12:24;95267.63;;;9.19;75.69